sensor_id;sensor_type;location;lat;lon;timestamp;temperature;humidity
35668;DHT22;22158;59.280;17.806;2023-05-16T05:01:47;13.00;99.90
35668;DHT22;22158;59.280;17.806;2023-05-16T05:04:13;13.00;99.90
35668;DHT22;22158;59.280;17.806;2023-05-16T05:06:38;13.00;99.90
35668;DHT22;22158;59.280;17.806;2023-05-16T05:09:04;13.00;99.90
35668;DHT22;22158;59.280;17.806;2023-05-16T05:11:32;13.00;99.90
35668;DHT22;22158;59.280;17.806;2023-05-16T05:13:58;13.00;99.90
35668;DHT22;22158;59.280;17.806;2023-05-16T05:16:23;13.00;99.90
35668;DHT22;22158;59.280;17.806;2023-05-16T05:18:49;13.00;99.90
35668;DHT22;22158;59.280;17.806;2023-05-16T05:21:15;12.90;99.90
35668;DHT22;22158;59.280;17.806;2023-05-16T05:23:40;12.90;99.90
35668;DHT22;22158;59.280;17.806;2023-05-16T05:26:06;12.80;99.90
35668;DHT22;22158;59.280;17.806;2023-05-16T05:28:31;12.80;99.90
35668;DHT22;22158;59.280;17.806;2023-05-16T05:30:57;12.70;99.90
35668;DHT22;22158;59.280;17.806;2023-05-16T05:33:26;12.60;99.90
35668;DHT22;22158;59.280;17.806;2023-05-16T05:35:52;12.50;99.90
35668;DHT22;22158;59.280;17.806;2023-05-16T05:38:19;12.50;99.90
35668;DHT22;22158;59.280;17.806;2023-05-16T05:40:44;12.50;99.90
35668;DHT22;22158;59.280;17.806;2023-05-16T05:43:10;12.40;99.90
35668;DHT22;22158;59.280;17.806;2023-05-16T05:45:35;12.40;99.90
35668;DHT22;22158;59.280;17.806;2023-05-16T05:48:02;12.40;99.90
35668;DHT22;22158;59.280;17.806;2023-05-16T05:50:27;12.30;99.90
35668;DHT22;22158;59.280;17.806;2023-05-16T05:52:54;12.30;99.90
35668;DHT22;22158;59.280;17.806;2023-05-16T05:55:20;12.30;99.90
35668;DHT22;22158;59.280;17.806;2023-05-16T05:57:46;12.30;99.90
35668;DHT22;22158;59.280;17.806;2023-05-16T06:00:12;12.30;99.90
35668;DHT22;22158;59.280;17.806;2023-05-16T06:02:38;12.40;99.90
35668;DHT22;22158;59.280;17.806;2023-05-16T06:05:03;12.40;99.90
35668;DHT22;22158;59.280;17.806;2023-05-16T06:07:29;12.50;99.90
35668;DHT22;22158;59.280;17.806;2023-05-16T06:09:55;12.50;99.90
35668;DHT22;22158;59.280;17.806;2023-05-16T06:12:20;12.60;99.90
35668;DHT22;22158;59.280;17.806;2023-05-16T06:14:46;12.60;99.90
35668;DHT22;22158;59.280;17.806;2023-05-16T06:17:11;12.60;99.90
35668;DHT22;22158;59.280;17.806;2023-05-16T06:19:37;12.60;99.90
35668;DHT22;22158;59.280;17.806;2023-05-16T06:22:02;12.70;99.90
35668;DHT22;22158;59.280;17.806;2023-05-16T06:24:28;12.60;99.90
35668;DHT22;22158;59.280;17.806;2023-05-16T06:26:54;12.60;99.90
35668;DHT22;22158;59.280;17.806;2023-05-16T06:29:20;12.60;99.90
35668;DHT22;22158;59.280;17.806;2023-05-16T06:31:45;12.60;99.90
35668;DHT22;22158;59.280;17.806;2023-05-16T06:34:11;12.70;99.90
35668;DHT22;22158;59.280;17.806;2023-05-16T06:36:37;12.70;99.90
35668;DHT22;22158;59.280;17.806;2023-05-16T06:39:03;12.70;99.90
35668;DHT22;22158;59.280;17.806;2023-05-16T06:41:29;12.70;99.90
35668;DHT22;22158;59.280;17.806;2023-05-16T06:43:55;12.70;99.90
35668;DHT22;22158;59.280;17.806;2023-05-16T06:46:21;12.80;99.90
35668;DHT22;22158;59.280;17.806;2023-05-16T06:48:46;12.80;99.90
35668;DHT22;22158;59.280;17.806;2023-05-16T06:51:12;12.80;99.90
35668;DHT22;22158;59.280;17.806;2023-05-16T06:53:38;12.80;99.90
35668;DHT22;22158;59.280;17.806;2023-05-16T06:56:03;12.80;99.90
35668;DHT22;22158;59.280;17.806;2023-05-16T06:58:29;12.80;99.90
35668;DHT22;22158;59.280;17.806;2023-05-16T07:00:54;12.90;99.90
35668;DHT22;22158;59.280;17.806;2023-05-16T07:03:20;12.90;99.90
35668;DHT22;22158;59.280;17.806;2023-05-16T07:05:46;12.90;99.90
35668;DHT22;22158;59.280;17.806;2023-05-16T07:08:11;12.90;99.90
35668;DHT22;22158;59.280;17.806;2023-05-16T07:10:40;12.90;99.90
35668;DHT22;22158;59.280;17.806;2023-05-16T07:13:06;12.90;99.90
35668;DHT22;22158;59.280;17.806;2023-05-16T07:15:31;12.90;99.90
35668;DHT22;22158;59.280;17.806;2023-05-16T07:17:57;12.90;99.90
35668;DHT22;22158;59.280;17.806;2023-05-16T07:20:23;12.90;99.90
35668;DHT22;22158;59.280;17.806;2023-05-16T07:22:48;12.80;99.90
35668;DHT22;22158;59.280;17.806;2023-05-16T07:25:14;12.80;99.90
35668;DHT22;22158;59.280;17.806;2023-05-16T07:27:41;12.70;99.90
35668;DHT22;22158;59.280;17.806;2023-05-16T07:30:09;12.70;99.90
35668;DHT22;22158;59.280;17.806;2023-05-16T07:32:35;12.80;99.90
35668;DHT22;22158;59.280;17.806;2023-05-16T07:35:03;12.80;99.90
35668;DHT22;22158;59.280;17.806;2023-05-16T07:37:29;12.80;99.90
35668;DHT22;22158;59.280;17.806;2023-05-16T07:39:55;12.80;99.90
35668;DHT22;22158;59.280;17.806;2023-05-16T07:42:20;12.80;99.90
35668;DHT22;22158;59.280;17.806;2023-05-16T07:44:46;12.80;99.90
35668;DHT22;22158;59.280;17.806;2023-05-16T07:47:12;12.80;99.90
35668;DHT22;22158;59.280;17.806;2023-05-16T07:49:38;12.90;99.90
35668;DHT22;22158;59.280;17.806;2023-05-16T07:52:03;12.80;99.90
35668;DHT22;22158;59.280;17.806;2023-05-16T07:54:31;12.80;99.90
35668;DHT22;22158;59.280;17.806;2023-05-16T07:56:57;12.80;99.90
35668;DHT22;22158;59.280;17.806;2023-05-16T07:59:23;12.80;99.90
35668;DHT22;22158;59.280;17.806;2023-05-16T08:01:49;12.80;99.90
35668;DHT22;22158;59.280;17.806;2023-05-16T08:04:14;12.80;99.90
35668;DHT22;22158;59.280;17.806;2023-05-16T08:06:40;12.80;99.90
35668;DHT22;22158;59.280;17.806;2023-05-16T08:09:05;12.90;99.90
35668;DHT22;22158;59.280;17.806;2023-05-16T08:11:31;13.00;99.90
35668;DHT22;22158;59.280;17.806;2023-05-16T08:13:57;13.10;99.90
35668;DHT22;22158;59.280;17.806;2023-05-16T08:16:22;13.20;99.90
35668;DHT22;22158;59.280;17.806;2023-05-16T08:18:48;13.30;99.90
35668;DHT22;22158;59.280;17.806;2023-05-16T08:21:13;13.40;99.90
35668;DHT22;22158;59.280;17.806;2023-05-16T08:23:41;13.50;99.90
35668;DHT22;22158;59.280;17.806;2023-05-16T08:26:06;13.60;99.90
35668;DHT22;22158;59.280;17.806;2023-05-16T08:28:32;13.70;99.90
35668;DHT22;22158;59.280;17.806;2023-05-16T08:30:58;13.80;99.90
35668;DHT22;22158;59.280;17.806;2023-05-16T08:33:23;13.90;99.90
35668;DHT22;22158;59.280;17.806;2023-05-16T08:35:50;14.10;99.90
35668;DHT22;22158;59.280;17.806;2023-05-16T08:38:17;14.30;99.90
35668;DHT22;22158;59.280;17.806;2023-05-16T08:40:43;14.40;99.90
35668;DHT22;22158;59.280;17.806;2023-05-16T08:43:08;14.50;99.90
35668;DHT22;22158;59.280;17.806;2023-05-16T08:45:34;14.70;99.90
35668;DHT22;22158;59.280;17.806;2023-05-16T08:48:00;14.70;99.90
35668;DHT22;22158;59.280;17.806;2023-05-16T08:50:29;14.80;99.90
35668;DHT22;22158;59.280;17.806;2023-05-16T08:52:56;14.80;99.90
35668;DHT22;22158;59.280;17.806;2023-05-16T08:55:22;14.80;99.90
35668;DHT22;22158;59.280;17.806;2023-05-16T08:57:49;14.90;99.90
35668;DHT22;22158;59.280;17.806;2023-05-16T09:00:18;14.80;99.90
35668;DHT22;22158;59.280;17.806;2023-05-16T09:02:44;14.70;99.90
35668;DHT22;22158;59.280;17.806;2023-05-16T09:05:12;14.60;99.90
35668;DHT22;22158;59.280;17.806;2023-05-16T09:07:38;14.60;99.90
35668;DHT22;22158;59.280;17.806;2023-05-16T09:10:05;14.60;99.90
35668;DHT22;22158;59.280;17.806;2023-05-16T09:12:32;14.60;99.90
35668;DHT22;22158;59.280;17.806;2023-05-16T09:15:00;14.60;99.90
35668;DHT22;22158;59.280;17.806;2023-05-16T09:17:43;14.70;99.90
35668;DHT22;22158;59.280;17.806;2023-05-16T09:22:36;14.80;99.90
35668;DHT22;22158;59.280;17.806;2023-05-16T09:25:02;14.90;99.90
35668;DHT22;22158;59.280;17.806;2023-05-16T09:27:30;15.00;99.90
35668;DHT22;22158;59.280;17.806;2023-05-16T09:29:57;15.10;99.90
35668;DHT22;22158;59.280;17.806;2023-05-16T09:32:24;15.10;99.90
35668;DHT22;22158;59.280;17.806;2023-05-16T09:34:52;15.10;99.90
35668;DHT22;22158;59.280;17.806;2023-05-16T09:37:18;15.10;99.90
35668;DHT22;22158;59.280;17.806;2023-05-16T09:39:49;15.00;99.90
35668;DHT22;22158;59.280;17.806;2023-05-16T09:42:17;15.00;99.90
35668;DHT22;22158;59.280;17.806;2023-05-16T09:44:50;14.90;99.90
35668;DHT22;22158;59.280;17.806;2023-05-16T09:47:20;14.80;99.90
35668;DHT22;22158;59.280;17.806;2023-05-16T09:49:50;14.70;99.90
35668;DHT22;22158;59.280;17.806;2023-05-16T09:52:16;14.60;99.90
35668;DHT22;22158;59.280;17.806;2023-05-16T09:54:41;14.60;99.90
35668;DHT22;22158;59.280;17.806;2023-05-16T09:57:08;14.60;99.90
35668;DHT22;22158;59.280;17.806;2023-05-16T09:59:37;14.70;99.90
35668;DHT22;22158;59.280;17.806;2023-05-16T10:02:05;14.60;99.90
35668;DHT22;22158;59.280;17.806;2023-05-16T10:04:35;14.70;99.90
35668;DHT22;22158;59.280;17.806;2023-05-16T10:07:04;14.70;99.90
35668;DHT22;22158;59.280;17.806;2023-05-16T10:09:34;14.80;99.90
35668;DHT22;22158;59.280;17.806;2023-05-16T10:12:02;14.80;99.90
35668;DHT22;22158;59.280;17.806;2023-05-16T10:14:33;14.80;99.90
35668;DHT22;22158;59.280;17.806;2023-05-16T10:16:59;14.80;99.90
35668;DHT22;22158;59.280;17.806;2023-05-16T10:19:25;14.80;99.90
35668;DHT22;22158;59.280;17.806;2023-05-16T10:21:53;14.80;99.90
35668;DHT22;22158;59.280;17.806;2023-05-16T10:24:29;14.70;99.90
35668;DHT22;22158;59.280;17.806;2023-05-16T10:26:55;14.70;99.90
35668;DHT22;22158;59.280;17.806;2023-05-16T10:29:22;14.80;99.90
35668;DHT22;22158;59.280;17.806;2023-05-16T10:31:48;14.80;99.90
35668;DHT22;22158;59.280;17.806;2023-05-16T10:34:15;14.90;99.90
35668;DHT22;22158;59.280;17.806;2023-05-16T10:36:42;14.90;99.90
35668;DHT22;22158;59.280;17.806;2023-05-16T10:39:09;15.00;99.90
35668;DHT22;22158;59.280;17.806;2023-05-16T10:41:35;15.00;99.90
35668;DHT22;22158;59.280;17.806;2023-05-16T10:44:01;15.10;99.90
35668;DHT22;22158;59.280;17.806;2023-05-16T10:46:27;15.20;99.90
35668;DHT22;22158;59.280;17.806;2023-05-16T10:48:55;15.20;99.90
35668;DHT22;22158;59.280;17.806;2023-05-16T10:53:50;15.20;99.90
35668;DHT22;22158;59.280;17.806;2023-05-16T10:56:21;15.00;99.90
35668;DHT22;22158;59.280;17.806;2023-05-16T10:58:47;14.80;99.90
35668;DHT22;22158;59.280;17.806;2023-05-16T11:04:09;14.60;99.90
35668;DHT22;22158;59.280;17.806;2023-05-16T11:06:44;14.50;99.90
35668;DHT22;22158;59.280;17.806;2023-05-16T11:14:05;14.60;99.90
35668;DHT22;22158;59.280;17.806;2023-05-16T11:16:30;14.70;99.90
35668;DHT22;22158;59.280;17.806;2023-05-16T11:19:07;14.70;99.90
35668;DHT22;22158;59.280;17.806;2023-05-16T11:24:30;14.70;99.90
35668;DHT22;22158;59.280;17.806;2023-05-16T11:26:58;14.80;99.90
35668;DHT22;22158;59.280;17.806;2023-05-16T11:29:32;14.80;99.90
35668;DHT22;22158;59.280;17.806;2023-05-16T11:32:03;14.80;99.90
35668;DHT22;22158;59.280;17.806;2023-05-16T11:34:30;14.80;99.90
35668;DHT22;22158;59.280;17.806;2023-05-16T11:36:56;14.80;99.90
35668;DHT22;22158;59.280;17.806;2023-05-16T11:39:22;14.90;99.90
35668;DHT22;22158;59.280;17.806;2023-05-16T11:41:52;15.10;99.90
35668;DHT22;22158;59.280;17.806;2023-05-16T11:44:18;15.20;99.90
35668;DHT22;22158;59.280;17.806;2023-05-16T11:46:44;15.30;99.90
35668;DHT22;22158;59.280;17.806;2023-05-16T11:49:11;15.30;99.90
35668;DHT22;22158;59.280;17.806;2023-05-16T11:51:38;15.30;99.90
35668;DHT22;22158;59.280;17.806;2023-05-16T11:54:04;15.40;99.90
35668;DHT22;22158;59.280;17.806;2023-05-16T11:56:30;15.50;99.90
35668;DHT22;22158;59.280;17.806;2023-05-16T11:58:58;15.40;99.90
35668;DHT22;22158;59.280;17.806;2023-05-16T12:01:24;15.40;99.90
35668;DHT22;22158;59.280;17.806;2023-05-16T12:03:56;15.40;99.90
35668;DHT22;22158;59.280;17.806;2023-05-16T12:06:22;15.40;99.90
35668;DHT22;22158;59.280;17.806;2023-05-16T12:08:51;15.40;99.90
35668;DHT22;22158;59.280;17.806;2023-05-16T12:11:17;15.40;99.90
35668;DHT22;22158;59.280;17.806;2023-05-16T12:13:42;15.40;99.90
35668;DHT22;22158;59.280;17.806;2023-05-16T12:16:08;15.50;99.90
35668;DHT22;22158;59.280;17.806;2023-05-16T12:18:35;15.70;99.90
35668;DHT22;22158;59.280;17.806;2023-05-16T12:21:06;15.90;99.90
35668;DHT22;22158;59.280;17.806;2023-05-16T12:23:32;16.10;99.90
35668;DHT22;22158;59.280;17.806;2023-05-16T12:25:58;16.40;99.90
35668;DHT22;22158;59.280;17.806;2023-05-16T12:28:31;16.70;99.90
35668;DHT22;22158;59.280;17.806;2023-05-16T12:31:02;16.90;99.90
35668;DHT22;22158;59.280;17.806;2023-05-16T12:33:27;17.00;99.90
35668;DHT22;22158;59.280;17.806;2023-05-16T12:35:53;17.00;99.90
35668;DHT22;22158;59.280;17.806;2023-05-16T12:38:20;17.00;99.90
35668;DHT22;22158;59.280;17.806;2023-05-16T12:40:46;17.20;99.90
35668;DHT22;22158;59.280;17.806;2023-05-16T12:43:21;17.40;99.90
35668;DHT22;22158;59.280;17.806;2023-05-16T12:45:53;17.30;99.90
35668;DHT22;22158;59.280;17.806;2023-05-16T12:48:20;17.10;99.90
35668;DHT22;22158;59.280;17.806;2023-05-16T12:50:45;16.80;99.90
35668;DHT22;22158;59.280;17.806;2023-05-16T12:53:12;16.70;99.90
35668;DHT22;22158;59.280;17.806;2023-05-16T12:55:39;16.60;99.90
35668;DHT22;22158;59.280;17.806;2023-05-16T12:58:04;16.70;99.90
35668;DHT22;22158;59.280;17.806;2023-05-16T13:00:30;16.80;99.90
35668;DHT22;22158;59.280;17.806;2023-05-16T13:02:56;16.80;99.90
35668;DHT22;22158;59.280;17.806;2023-05-16T13:05:22;16.80;99.90
35668;DHT22;22158;59.280;17.806;2023-05-16T13:07:48;16.80;99.90
35668;DHT22;22158;59.280;17.806;2023-05-16T13:10:16;16.80;99.90
35668;DHT22;22158;59.280;17.806;2023-05-16T13:12:42;16.80;99.90
35668;DHT22;22158;59.280;17.806;2023-05-16T13:15:09;17.10;99.90
35668;DHT22;22158;59.280;17.806;2023-05-16T13:17:37;17.20;99.90
35668;DHT22;22158;59.280;17.806;2023-05-16T13:20:04;17.50;99.90
35668;DHT22;22158;59.280;17.806;2023-05-16T13:22:35;17.70;99.90
35668;DHT22;22158;59.280;17.806;2023-05-16T13:25:01;17.60;99.90
35668;DHT22;22158;59.280;17.806;2023-05-16T13:27:26;17.50;99.90
35668;DHT22;22158;59.280;17.806;2023-05-16T13:29:52;17.50;99.90
35668;DHT22;22158;59.280;17.806;2023-05-16T13:32:18;17.60;99.90
35668;DHT22;22158;59.280;17.806;2023-05-16T13:34:43;17.80;99.90
35668;DHT22;22158;59.280;17.806;2023-05-16T13:37:09;18.00;99.90
35668;DHT22;22158;59.280;17.806;2023-05-16T13:39:35;17.90;99.90
35668;DHT22;22158;59.280;17.806;2023-05-16T13:42:00;17.80;99.90
35668;DHT22;22158;59.280;17.806;2023-05-16T13:44:28;18.00;99.90
35668;DHT22;22158;59.280;17.806;2023-05-16T13:46:54;18.50;99.90
35668;DHT22;22158;59.280;17.806;2023-05-16T13:49:21;18.80;99.90
35668;DHT22;22158;59.280;17.806;2023-05-16T13:51:46;18.80;99.90
35668;DHT22;22158;59.280;17.806;2023-05-16T13:54:12;18.90;99.90
35668;DHT22;22158;59.280;17.806;2023-05-16T13:56:38;18.90;99.90
35668;DHT22;22158;59.280;17.806;2023-05-16T13:59:03;18.90;99.90
35668;DHT22;22158;59.280;17.806;2023-05-16T14:01:29;18.90;99.90
35668;DHT22;22158;59.280;17.806;2023-05-16T14:03:55;19.00;99.90
35668;DHT22;22158;59.280;17.806;2023-05-16T14:06:20;18.90;99.90
35668;DHT22;22158;59.280;17.806;2023-05-16T14:08:46;18.70;99.90
35668;DHT22;22158;59.280;17.806;2023-05-16T14:11:12;18.60;99.90
35668;DHT22;22158;59.280;17.806;2023-05-16T14:13:37;18.40;99.90
35668;DHT22;22158;59.280;17.806;2023-05-16T14:16:05;18.20;99.90
35668;DHT22;22158;59.280;17.806;2023-05-16T14:18:31;18.10;99.90
35668;DHT22;22158;59.280;17.806;2023-05-16T14:20:56;18.00;99.90
35668;DHT22;22158;59.280;17.806;2023-05-16T14:23:22;17.90;99.90
35668;DHT22;22158;59.280;17.806;2023-05-16T14:25:48;17.70;99.90
35668;DHT22;22158;59.280;17.806;2023-05-16T14:28:13;17.60;99.90
35668;DHT22;22158;59.280;17.806;2023-05-16T14:30:39;17.40;99.90
35668;DHT22;22158;59.280;17.806;2023-05-16T14:33:05;17.30;99.90
35668;DHT22;22158;59.280;17.806;2023-05-16T14:35:31;17.20;99.90
35668;DHT22;22158;59.280;17.806;2023-05-16T14:37:57;17.10;99.90
35668;DHT22;22158;59.280;17.806;2023-05-16T14:40:23;17.10;99.90
35668;DHT22;22158;59.280;17.806;2023-05-16T14:42:48;17.20;99.90
35668;DHT22;22158;59.280;17.806;2023-05-16T14:45:15;17.20;99.90
35668;DHT22;22158;59.280;17.806;2023-05-16T14:47:41;17.20;99.90
35668;DHT22;22158;59.280;17.806;2023-05-16T14:50:07;17.20;99.90
35668;DHT22;22158;59.280;17.806;2023-05-16T14:52:33;17.30;99.90
35668;DHT22;22158;59.280;17.806;2023-05-16T14:54:58;17.30;99.90
35668;DHT22;22158;59.280;17.806;2023-05-16T14:57:24;17.30;99.90
35668;DHT22;22158;59.280;17.806;2023-05-16T14:59:49;17.20;99.90
35668;DHT22;22158;59.280;17.806;2023-05-16T15:02:15;17.00;99.90
35668;DHT22;22158;59.280;17.806;2023-05-16T15:04:41;16.90;99.90
35668;DHT22;22158;59.280;17.806;2023-05-16T15:07:06;16.70;99.90
35668;DHT22;22158;59.280;17.806;2023-05-16T15:09:32;16.70;99.90
35668;DHT22;22158;59.280;17.806;2023-05-16T15:11:57;16.80;99.90
35668;DHT22;22158;59.280;17.806;2023-05-16T15:14:23;16.80;99.90
35668;DHT22;22158;59.280;17.806;2023-05-16T15:16:51;16.90;99.90
35668;DHT22;22158;59.280;17.806;2023-05-16T15:19:16;16.90;99.90
35668;DHT22;22158;59.280;17.806;2023-05-16T15:21:42;16.90;99.90
35668;DHT22;22158;59.280;17.806;2023-05-16T15:24:08;17.00;99.90
35668;DHT22;22158;59.280;17.806;2023-05-16T15:26:33;16.90;99.90
35668;DHT22;22158;59.280;17.806;2023-05-16T15:28:59;16.70;99.90
35668;DHT22;22158;59.280;17.806;2023-05-16T15:31:25;16.70;99.90
35668;DHT22;22158;59.280;17.806;2023-05-16T15:33:51;16.80;99.90
35668;DHT22;22158;59.280;17.806;2023-05-16T15:36:16;16.80;99.90
35668;DHT22;22158;59.280;17.806;2023-05-16T15:38:42;16.60;99.90
35668;DHT22;22158;59.280;17.806;2023-05-16T15:41:09;16.70;99.90
35668;DHT22;22158;59.280;17.806;2023-05-16T15:43:35;16.70;99.90
35668;DHT22;22158;59.280;17.806;2023-05-16T15:46:00;16.70;99.90
35668;DHT22;22158;59.280;17.806;2023-05-16T15:48:26;16.60;99.90
35668;DHT22;22158;59.280;17.806;2023-05-16T15:50:51;16.50;99.90
35668;DHT22;22158;59.280;17.806;2023-05-16T15:53:17;16.40;99.90
35668;DHT22;22158;59.280;17.806;2023-05-16T15:55:43;16.30;99.90
35668;DHT22;22158;59.280;17.806;2023-05-16T15:58:08;16.30;99.90
35668;DHT22;22158;59.280;17.806;2023-05-16T16:00:34;16.20;99.90
35668;DHT22;22158;59.280;17.806;2023-05-16T16:02:59;16.30;99.90
35668;DHT22;22158;59.280;17.806;2023-05-16T16:05:25;16.20;99.90
35668;DHT22;22158;59.280;17.806;2023-05-16T16:07:52;16.20;99.90
35668;DHT22;22158;59.280;17.806;2023-05-16T16:10:18;16.20;99.90
35668;DHT22;22158;59.280;17.806;2023-05-16T16:13:00;16.20;99.90
35668;DHT22;22158;59.280;17.806;2023-05-16T16:15:27;16.20;99.90
35668;DHT22;22158;59.280;17.806;2023-05-16T16:17:52;16.30;99.90
35668;DHT22;22158;59.280;17.806;2023-05-16T16:20:18;16.30;99.90
35668;DHT22;22158;59.280;17.806;2023-05-16T16:22:43;16.40;99.90
35668;DHT22;22158;59.280;17.806;2023-05-16T16:25:09;16.40;99.90
35668;DHT22;22158;59.280;17.806;2023-05-16T16:27:35;16.30;99.90
35668;DHT22;22158;59.280;17.806;2023-05-16T16:30:00;16.30;99.90
35668;DHT22;22158;59.280;17.806;2023-05-16T16:32:26;16.30;99.90
35668;DHT22;22158;59.280;17.806;2023-05-16T16:34:51;16.20;99.90
35668;DHT22;22158;59.280;17.806;2023-05-16T16:37:18;16.00;99.90
35668;DHT22;22158;59.280;17.806;2023-05-16T16:39:43;16.10;99.90
35668;DHT22;22158;59.280;17.806;2023-05-16T16:42:09;15.90;99.90
35668;DHT22;22158;59.280;17.806;2023-05-16T16:44:35;15.90;99.90
35668;DHT22;22158;59.280;17.806;2023-05-16T16:47:00;15.90;99.90
35668;DHT22;22158;59.280;17.806;2023-05-16T16:49:26;15.70;99.90
35668;DHT22;22158;59.280;17.806;2023-05-16T16:51:52;15.70;99.90
35668;DHT22;22158;59.280;17.806;2023-05-16T16:54:17;15.60;99.90
35668;DHT22;22158;59.280;17.806;2023-05-16T16:56:43;15.60;99.90
35668;DHT22;22158;59.280;17.806;2023-05-16T16:59:10;15.50;99.90
35668;DHT22;22158;59.280;17.806;2023-05-16T17:01:35;15.50;99.90
35668;DHT22;22158;59.280;17.806;2023-05-16T17:04:01;15.40;99.90
35668;DHT22;22158;59.280;17.806;2023-05-16T17:06:29;15.40;99.90
35668;DHT22;22158;59.280;17.806;2023-05-16T17:08:55;15.50;99.90
35668;DHT22;22158;59.280;17.806;2023-05-16T17:11:21;15.50;99.90
35668;DHT22;22158;59.280;17.806;2023-05-16T17:13:48;15.50;99.90
35668;DHT22;22158;59.280;17.806;2023-05-16T17:16:14;15.40;99.90
35668;DHT22;22158;59.280;17.806;2023-05-16T17:18:40;15.50;99.90
35668;DHT22;22158;59.280;17.806;2023-05-16T17:21:07;15.40;99.90
35668;DHT22;22158;59.280;17.806;2023-05-16T17:23:33;15.50;99.90
35668;DHT22;22158;59.280;17.806;2023-05-16T17:25:59;15.50;99.90
35668;DHT22;22158;59.280;17.806;2023-05-16T17:28:24;15.50;99.90
35668;DHT22;22158;59.280;17.806;2023-05-16T17:30:50;15.50;99.90
35668;DHT22;22158;59.280;17.806;2023-05-16T17:33:17;15.60;99.90
35668;DHT22;22158;59.280;17.806;2023-05-16T17:35:43;15.70;99.90
35668;DHT22;22158;59.280;17.806;2023-05-16T17:38:09;15.80;99.90
35668;DHT22;22158;59.280;17.806;2023-05-16T17:40:35;15.80;99.90
35668;DHT22;22158;59.280;17.806;2023-05-16T17:43:00;15.80;99.90
35668;DHT22;22158;59.280;17.806;2023-05-16T17:45:26;15.90;99.90
35668;DHT22;22158;59.280;17.806;2023-05-16T17:47:52;15.90;99.90
35668;DHT22;22158;59.280;17.806;2023-05-16T17:50:17;15.80;99.90
35668;DHT22;22158;59.280;17.806;2023-05-16T17:52:44;15.60;99.90
35668;DHT22;22158;59.280;17.806;2023-05-16T17:55:10;15.70;99.90
35668;DHT22;22158;59.280;17.806;2023-05-16T17:57:36;15.70;99.90
35668;DHT22;22158;59.280;17.806;2023-05-16T18:00:03;15.70;99.90
35668;DHT22;22158;59.280;17.806;2023-05-16T18:02:30;15.70;99.90
35668;DHT22;22158;59.280;17.806;2023-05-16T18:04:55;15.70;99.90
35668;DHT22;22158;59.280;17.806;2023-05-16T18:07:21;15.60;99.90
35668;DHT22;22158;59.280;17.806;2023-05-16T18:09:46;15.60;99.90
35668;DHT22;22158;59.280;17.806;2023-05-16T18:12:12;15.50;99.90
35668;DHT22;22158;59.280;17.806;2023-05-16T18:14:38;15.50;99.90
35668;DHT22;22158;59.280;17.806;2023-05-16T18:17:03;15.50;99.90
35668;DHT22;22158;59.280;17.806;2023-05-16T18:19:29;15.30;99.90
35668;DHT22;22158;59.280;17.806;2023-05-16T18:21:55;15.20;99.90
35668;DHT22;22158;59.280;17.806;2023-05-16T18:24:21;15.10;99.90
35668;DHT22;22158;59.280;17.806;2023-05-16T18:26:46;15.10;99.90
35668;DHT22;22158;59.280;17.806;2023-05-16T18:29:13;15.00;99.90
35668;DHT22;22158;59.280;17.806;2023-05-16T18:31:39;14.90;99.90
35668;DHT22;22158;59.280;17.806;2023-05-16T18:34:07;14.90;99.90
35668;DHT22;22158;59.280;17.806;2023-05-16T18:36:33;14.80;99.90
35668;DHT22;22158;59.280;17.806;2023-05-16T18:38:59;14.70;99.90
35668;DHT22;22158;59.280;17.806;2023-05-16T18:41:24;14.60;99.90
35668;DHT22;22158;59.280;17.806;2023-05-16T18:43:51;14.60;99.90
35668;DHT22;22158;59.280;17.806;2023-05-16T18:46:16;14.50;99.90
35668;DHT22;22158;59.280;17.806;2023-05-16T18:48:42;14.50;99.90
35668;DHT22;22158;59.280;17.806;2023-05-16T18:51:07;14.40;99.90
35668;DHT22;22158;59.280;17.806;2023-05-16T18:53:33;14.30;99.90
35668;DHT22;22158;59.280;17.806;2023-05-16T18:56:00;14.20;99.90
35668;DHT22;22158;59.280;17.806;2023-05-16T18:58:25;14.20;99.90
35668;DHT22;22158;59.280;17.806;2023-05-16T19:00:51;14.10;99.90
35668;DHT22;22158;59.280;17.806;2023-05-16T19:03:17;14.10;99.90
35668;DHT22;22158;59.280;17.806;2023-05-16T19:05:43;14.00;99.90
35668;DHT22;22158;59.280;17.806;2023-05-16T19:08:09;14.00;99.90
35668;DHT22;22158;59.280;17.806;2023-05-16T19:10:34;14.00;99.90
35668;DHT22;22158;59.280;17.806;2023-05-16T19:13:06;14.00;99.90
35668;DHT22;22158;59.280;17.806;2023-05-16T19:15:34;14.00;99.90
35668;DHT22;22158;59.280;17.806;2023-05-16T19:18:00;14.00;99.90
35668;DHT22;22158;59.280;17.806;2023-05-16T19:20:26;14.00;99.90
35668;DHT22;22158;59.280;17.806;2023-05-16T19:22:51;14.00;99.90
35668;DHT22;22158;59.280;17.806;2023-05-16T19:25:17;14.00;99.90
35668;DHT22;22158;59.280;17.806;2023-05-16T19:27:42;14.00;99.90
35668;DHT22;22158;59.280;17.806;2023-05-16T19:30:08;14.00;99.90
35668;DHT22;22158;59.280;17.806;2023-05-16T19:32:34;13.90;99.90
35668;DHT22;22158;59.280;17.806;2023-05-16T19:35:00;13.90;99.90
35668;DHT22;22158;59.280;17.806;2023-05-16T19:37:25;13.80;99.90
35668;DHT22;22158;59.280;17.806;2023-05-16T19:39:51;13.80;99.90
35668;DHT22;22158;59.280;17.806;2023-05-16T19:42:17;13.80;99.90
35668;DHT22;22158;59.280;17.806;2023-05-16T19:44:42;13.90;99.90
35668;DHT22;22158;59.280;17.806;2023-05-16T19:47:08;13.80;99.90
35668;DHT22;22158;59.280;17.806;2023-05-16T19:49:33;13.80;99.90
35668;DHT22;22158;59.280;17.806;2023-05-16T19:51:59;13.80;99.90
35668;DHT22;22158;59.280;17.806;2023-05-16T19:54:25;13.80;99.90
35668;DHT22;22158;59.280;17.806;2023-05-16T19:56:51;13.80;99.90
35668;DHT22;22158;59.280;17.806;2023-05-16T19:59:16;13.80;99.90
35668;DHT22;22158;59.280;17.806;2023-05-16T20:01:42;13.80;99.90
35668;DHT22;22158;59.280;17.806;2023-05-16T20:04:08;13.80;99.90
35668;DHT22;22158;59.280;17.806;2023-05-16T20:06:33;13.70;99.90
35668;DHT22;22158;59.280;17.806;2023-05-16T20:08:59;13.60;99.90
35668;DHT22;22158;59.280;17.806;2023-05-16T20:11:24;13.60;99.90
35668;DHT22;22158;59.280;17.806;2023-05-16T20:13:50;13.60;99.90
35668;DHT22;22158;59.280;17.806;2023-05-16T20:16:16;13.50;99.90
35668;DHT22;22158;59.280;17.806;2023-05-16T20:18:44;13.40;99.90
35668;DHT22;22158;59.280;17.806;2023-05-16T20:21:10;13.40;99.90
35668;DHT22;22158;59.280;17.806;2023-05-16T20:23:36;13.40;99.90
35668;DHT22;22158;59.280;17.806;2023-05-16T20:26:03;13.40;99.90